Etusivu
METAR-TAF:

METAR-TAF

Lentoasemat :

Oran, Algeria

Leveyspiiri: 35-38N, Pituuspiiri: 000-36W, korkeus merenpinnasta: 90 m

Tämänhetkinen sää

Tämä raportti tehtiin 30 minuuttia sitten, kello 14.30 UTC
Tuuli 14 kn pohjoisen/luoteesta
Lämpötila 27°C
Kosteus 62%
Ilmanpaine 1013 hPa
Näkyvyys 10 km tai enemmän
Muutamia pilviä 2300 ft:n korkeudessa
Hajanaisia pilviä 23300 ft:n korkeudessa

METAR: DAOO 231430Z 33014KT 9999 FEW023 SCT233 27/19 Q1013

Aika: 16:00 (15:00 UTC)

Sääennuste

Tämä raportti tehtiin 4 tuntia ja 0 minuuttia sitten, kello 11.00 UTC
Ennuste voimassa 23. päivästä klo 12 UTC - 24. päivään klo 12 UTC
Tuuli 12 kn pohjoisesta
Näkyvyys 10 km tai enemmän
Muutamia pilviä 2300 ft:n korkeudessa
Hajanaisia pilviä 10000 ft:n korkeudessa
Tulossa
23. päivästä klo 19 UTC - 23. päivään klo 22 UTC
Tuuli 2 kn eri suunnista

TAF: DAOO 231100Z 2312/2412 36012KT 9999 FEW023 SCT100 BECMG 2319/2322 VRB02KT

Säähavainnot ja -ennusteet yli 4000 lentoasemalta (METAR- ja TAF-raportit).

Käytössä olevat sääasemat on merkitty karttaan keltaisilla ja punaisilla pisteillä.

Aseta hiiri pisteen päälle nähdäksesi sääaseman nimen.

Klikkaa sitten nähdäksesi säähavainnot ja -ennusteet.

Kartan vaihtaminen: klikkaa mustalla rastilla varustettuja vihreitä pisteitä, niin voit zoomata sisään; viivalla varustettua vihreää pistettä, niin voit zoomata ulos tai vihreitä nuolia, niin pääset viereisille kartoille.


METAR-TAF: